AirNav   Everest Fuels
 
 1607 users online  

5L0 Lakota Municipal Airport
Lakota, North Dakota, USA

GOING TO LAKOTA?


FAA INFORMATION EFFECTIVE 16 JULY 2020

Location

FAA Identifier: 5L0
Lat/Long: 48-01-44.1000N 098-19-32.7000W
48-01.735000N 098-19.545000W
48.0289167,-98.3257500
(estimated)
Elevation: 1511.3 ft. / 460.6 m (surveyed)
Variation: 04E (2020)
From city: 1 mile SE of LAKOTA, ND
Time zone: UTC -5 (UTC -6 during Standard Time)
Zip code: 58344

Airport Operations

Airport use: Open to the public
Activation date: 09/1947
Control tower: no
ARTCC: MINNEAPOLIS CENTER
FSS: GRAND FORKS FLIGHT SERVICE STATION
NOTAMs facility: GFK (NOTAM-D service available)
Attendance: UNATNDD
Wind indicator: lighted
Segmented circle: yes
Lights: RY 15/33 MIRL AND PAPI OPER DUSK -0000 AFT HRS CTAF 122.8 TO ACTVT.
Beacon: white-green (lighted land airport)
BEACON INOP INDEF. Operates sunset to sunrise.

Airport Communications

CTAF/UNICOM: 122.8
  • APCH/DEP SVC PRVDD BY MINNEAPOLIS ARTCC (ZMP) ON 132.15/269.6 (GRAND FORKS RCAG).

Nearby radio navigation aids

VOR radial/distance  VOR name  Freq  Var
DVLr095/24.1DEVILS LAKE VOR/DME111.0007E

Airport Services

Parking: hangars and tiedowns
Airframe service: NONE
Powerplant service: NONE
Bottled oxygen: NONE
Bulk oxygen: NONE

Runway Information

Runway 15/33

Dimensions: 3500 x 60 ft. / 1067 x 18 m
Surface: asphalt, in fair condition
Weight bearing capacity: 
Single wheel: 12.5
Runway edge lights: medium intensity
RUNWAY 15  RUNWAY 33
Latitude: 48-02.013343N48-01.457280N
Longitude: 098-19.655035W098-19.433975W
Elevation: 1511.2 ft.1507.1 ft.
Traffic pattern: leftleft
Runway heading: 161 magnetic, 165 true341 magnetic, 345 true
Markings: nonprecision, in good conditionnonprecision, in fair condition
Visual slope indicator: 2-light PAPI on left (3.00 degrees glide path)2-light PAPI on left (3.00 degrees glide path)
Runway end identifier lights: nono
Touchdown point: yes, no lightsyes, no lights
Obstructions: 40 ft. tree, 1033 ft. from runway, 20:1 slope to clear
+35 FT TREE ROW 1040 FT FM THR 200 FT L AND R OF CNTRLN EXTDD APCH RATIO 24:1.
30 ft. trees, 885 ft. from runway, 190 ft. right of centerline, 22:1 slope to clear

Airport Ownership and Management from official FAA records

Ownership: Publicly-owned
Owner: LAKOTA ARPT AUTHORITY
BOX 505
LAKOTA, ND 58344
Phone (701) 247-2561
CHRM OF ARPT AUTH; DOUG MANBECK 701-247-2400.
Manager: MATT NELSON
BOX 505
LAKOTA, ND 58344
Phone 713-320-4770

Airport Operational Statistics

Aircraft based on the field: 7
Single engine airplanes: 7
    
Aircraft operations: avg 31/week *
68% local general aviation
31% transient general aviation
1% air taxi
* for 12-month period ending 28 June 2018

Additional Remarks

CONFIRM SNOW REMOVAL & WINTER COND WITH CITY SUPERINT. - CALL 701-304-0127/247-3112.
RY 15/33 HAS SOFT SHOULDERS.
RY 15/33 LACKS 200 FT GRASS SAFETY AREA.
32 FT PLINE MARKED WITH ORANGE BALLS 1/2 NM FROM RY 33 THLD ON CTRLN.
FOR CD CTC MINNEAPOLIS ARTCC AT 651-463-5588.

Instrument Procedures

NOTE: All procedures below are presented as PDF files. If you need a reader for these files, you should download the free Adobe Reader.

NOT FOR NAVIGATION. Please procure official charts for flight.
FAA instrument procedures published for use from 16 July 2020 at 0901Z to 13 August 2020 at 0900Z.

 
IAPs - Instrument Approach Procedures
RNAV (GPS) RWY 33   download (213KB)
NOTE: Special Take-Off Minimums/Departure Procedures apply   download (286KB)

Other nearby airports with instrument procedures:

KDVL - Devils Lake Regional Airport (24 nm W)
4V4 - Northwood Municipal Airport-Vince Field (35 nm SE)
KRDR - Grand Forks Air Force Base (37 nm E)
S32 - Cooperstown Municipal Airport (37 nm S)
D55 - Robertson Field Airport (44 nm N)
 
Loc | Ops | Rwys | IFR | FBO | Links
Com | Nav | Svcs | Stats | Notes

Bismarck Aero Center
AirBoss

 
Area around 5L0 (Lakota Municipal Airport)
 
Road maps at: MapQuest Bing Google
 
Aerial photo
WARNING: Photo may not be current or correct
Aerial photo of 5L0 (Lakota Municipal Airport)
Do you have a better or more recent aerial photo of Lakota Municipal Airport that you would like to share? If so, please send us your photo.

 
Sectional chart

 
Airport distance calculator
Flying to Lakota Municipal Airport? Find the distance to fly.

From to 5L0

Sunrise and sunset
Times for 04-Aug-2020
 Local
(UTC-5)
 Zulu
(UTC)
Morning civil twilight05:4010:40
Sunrise06:1611:16
Sunset21:0302:03
Evening civil twilight21:3902:39

Current date and time
Zulu (UTC)  04-Aug-2020 16:21:25
Local (UTC-5)  04-Aug-2020 11:21:25
 
METAR
KDVL 
24nm W 
041556Z AUTO 15010KT 10SM CLR 20/11 A3013 RMK AO2 SLP782 T02000111
KRDR 
37nm E 
041556Z AUTO 22006KT 10SM CLR 22/14 A3014 RMK AO2 SLP211 T02200139 $
KS32 
37nm S 
041555Z AUTO 15011KT 10SM CLR 21/13 A3014 RMK AO2
KD55 
44nm N 
041555Z AUTO 18007KT 10SM CLR 21/13 A3015 RMK AO2
KGAF 
44nm NE 
041555Z AUTO VRB04KT 9SM CLR 21/12 A3015 RMK AO2 PWINO
K9D7 
45nm NW 
041555Z AUTO 17009KT 10SM CLR 20/13 A3014 RMK AO2
KGFK 
46nm E 
041553Z 18006KT 10SM BKN250 22/12 A3013 RMK AO2 SLP204 T02170122
K46D 
48nm SW 
041555Z AUTO 16011KT 10SM CLR 22/11 A3013 RMK AO2
TAF
KDVL 
24nm W 
041120Z 0412/0512 17008KT P6SM FEW250 FM050100 14008KT P6SM BKN180 FM050600 16010KT P6SM VCTS BKN090CB
NOTAMs
Click for the latest NOTAMs
NOTAMs are issued by the DoD/FAA and will open in a separate window not controlled by AirNav.

 

 
 

Would you like to see your business listed on this page?

 If your business provides an interesting product or service to pilots, flight crews, aircraft, or users of the Lakota Municipal Airport, you should consider listing it here.  To start the listing process, click on the button below
 
Add a business
 

Other Pages about Lakota Municipal Airport

Update a link
 
Copyright © AirNav, LLC. All rights reserved. Privacy Policy  Contact